createdAt,value
2018-07-10T00:00:01.772Z,5.67
2018-07-10T00:02:41.187Z,7.00
2018-07-10T00:05:18.633Z,7.83
2018-07-10T00:08:06.846Z,6.30
2018-07-10T00:10:53.290Z,5.63
2018-07-10T00:13:21.182Z,8.97
2018-07-10T00:15:49.064Z,4.70
2018-07-10T00:18:16.825Z,6.70
2018-07-10T00:20:44.646Z,7.23
2018-07-10T00:23:12.398Z,5.47
2018-07-10T00:25:40.200Z,8.23
2018-07-10T00:28:08.018Z,9.03
2018-07-10T00:30:35.869Z,6.27
2018-07-10T00:33:03.675Z,6.53
2018-07-10T00:35:31.477Z,7.97
2018-07-10T00:38:10.787Z,7.10
2018-07-10T00:40:38.649Z,4.50
2018-07-10T00:43:08.657Z,5.90
2018-07-10T00:45:36.358Z,6.20
2018-07-10T00:48:04.170Z,6.23
2018-07-10T00:50:31.945Z,7.43
2018-07-10T00:52:59.646Z,9.80
2018-07-10T00:55:27.493Z,6.07
2018-07-10T00:57:55.325Z,8.90
2018-07-10T01:00:29.029Z,9.10
2018-07-10T01:02:57.785Z,8.80
2018-07-10T01:05:25.757Z,6.10
2018-07-10T01:07:55.093Z,6.03
2018-07-10T01:10:23.412Z,5.43
2018-07-10T01:12:51.286Z,7.90
2018-07-10T01:15:19.646Z,6.50
2018-07-10T01:17:48.104Z,7.47
2018-07-10T01:20:17.340Z,7.43
2018-07-10T01:22:45.364Z,7.70
2018-07-10T01:25:13.071Z,10.90
2018-07-10T01:27:40.980Z,5.63
2018-07-10T01:30:08.806Z,8.43
2018-07-10T01:32:36.628Z,6.27
2018-07-10T01:35:04.343Z,10.43
2018-07-10T01:37:32.759Z,6.53
2018-07-10T01:40:01.709Z,6.27
2018-07-10T01:42:29.547Z,8.50
2018-07-10T01:44:57.403Z,5.90
2018-07-10T01:47:25.209Z,6.00
2018-07-10T01:49:53.031Z,10.87
2018-07-10T01:52:20.857Z,9.07
2018-07-10T01:54:48.693Z,7.30
2018-07-10T01:57:16.554Z,8.37
2018-07-10T01:59:44.370Z,9.07
2018-07-10T02:02:12.363Z,8.63
2018-07-10T02:04:40.181Z,9.53
2018-07-10T02:07:08.000Z,9.03
2018-07-10T02:09:35.875Z,8.40
2018-07-10T02:12:03.922Z,6.87
2018-07-10T02:14:31.724Z,12.27
2018-07-10T02:16:59.516Z,8.87
2018-07-10T02:19:27.397Z,5.40
2018-07-10T02:21:55.355Z,8.57
2018-07-10T02:24:24.858Z,6.00
2018-07-10T02:26:53.155Z,5.03
2018-07-10T02:29:21.068Z,8.50
2018-07-10T02:31:49.520Z,7.80
2018-07-10T02:34:17.370Z,6.67
2018-07-10T02:36:45.099Z,7.60
2018-07-10T02:39:12.989Z,7.10
2018-07-10T02:41:41.787Z,7.00
2018-07-10T02:44:09.515Z,6.80
2018-07-10T02:46:37.673Z,8.33
2018-07-10T02:49:13.792Z,9.47
2018-07-10T02:51:43.277Z,8.03
2018-07-10T02:54:11.633Z,5.40
2018-07-10T02:56:40.737Z,6.10
2018-07-10T02:59:08.529Z,7.23
2018-07-10T03:01:36.400Z,7.80
2018-07-10T03:04:04.200Z,7.67
2018-07-10T03:06:33.058Z,8.10
2018-07-10T03:09:01.278Z,5.73
2018-07-10T03:11:29.645Z,5.77
2018-07-10T03:13:57.447Z,5.17
2018-07-10T03:16:25.171Z,7.07
2018-07-10T03:18:53.031Z,8.50
2018-07-10T03:21:20.797Z,7.47
2018-07-10T03:23:48.765Z,6.00
2018-07-10T03:26:16.854Z,11.07
2018-07-10T03:28:44.702Z,6.00
2018-07-10T03:31:12.614Z,10.83
2018-07-10T03:33:40.378Z,10.30
2018-07-10T03:36:08.161Z,8.70
2018-07-10T03:38:36.029Z,4.90
2018-07-10T03:41:03.917Z,5.10
2018-07-10T03:43:31.752Z,5.47
2018-07-10T03:45:59.801Z,7.00
2018-07-10T03:48:27.876Z,5.30
2018-07-10T03:50:55.650Z,7.57
2018-07-10T03:53:23.465Z,5.30
2018-07-10T03:55:51.269Z,8.03
2018-07-10T03:58:19.382Z,5.70
2018-07-10T04:00:48.246Z,5.30
2018-07-10T04:03:15.986Z,6.30
2018-07-10T04:05:43.785Z,6.03
2018-07-10T04:08:13.169Z,6.43
2018-07-10T04:10:40.935Z,5.93
2018-07-10T04:13:10.478Z,7.90
2018-07-10T04:15:38.875Z,6.87
2018-07-10T04:18:09.736Z,5.60
2018-07-10T04:21:23.149Z,7.53
2018-07-10T04:23:57.920Z,5.67
2018-07-10T04:26:25.665Z,10.40
2018-07-10T04:29:17.902Z,8.20
2018-07-10T04:31:57.823Z,6.17
2018-07-10T04:34:27.090Z,8.40
2018-07-10T04:36:59.851Z,6.30
2018-07-10T04:39:27.568Z,5.63
2018-07-10T04:42:21.664Z,8.00
2018-07-10T04:45:06.627Z,5.23
2018-07-10T04:47:44.142Z,8.43
2018-07-10T04:50:16.674Z,9.83
2018-07-10T04:52:50.081Z,7.83
2018-07-10T04:55:18.095Z,5.53
2018-07-10T04:57:57.924Z,6.93
2018-07-10T05:00:26.938Z,7.90
2018-07-10T05:02:55.317Z,5.93
2018-07-10T05:05:23.565Z,6.10
2018-07-10T05:07:53.016Z,6.30
2018-07-10T05:10:20.909Z,8.17
2018-07-10T05:12:48.842Z,7.20
2018-07-10T05:15:16.692Z,6.77
2018-07-10T05:17:45.534Z,8.40
2018-07-10T05:20:13.332Z,8.30
2018-07-10T05:22:41.322Z,6.50
2018-07-10T05:25:09.194Z,7.17
2018-07-10T05:27:37.082Z,5.97
2018-07-10T05:30:04.994Z,7.20
2018-07-10T05:32:33.130Z,6.37
2018-07-10T05:35:02.622Z,6.20
2018-07-10T05:37:33.110Z,9.67
2018-07-10T05:40:02.323Z,5.20
2018-07-10T05:42:30.127Z,6.63
2018-07-10T05:44:58.142Z,9.03
2018-07-10T05:47:25.906Z,5.87
2018-07-10T05:49:54.549Z,6.80
2018-07-10T05:52:22.457Z,5.40
2018-07-10T05:54:50.261Z,4.97
2018-07-10T05:57:18.153Z,4.97
2018-07-10T05:59:45.958Z,7.57
2018-07-10T06:02:13.845Z,6.43
2018-07-10T06:04:41.720Z,6.07
2018-07-10T06:07:09.467Z,4.87
2018-07-10T06:09:37.307Z,5.20
2018-07-10T06:12:05.052Z,4.60
2018-07-10T06:14:32.939Z,6.17
2018-07-10T06:17:00.669Z,5.77
2018-07-10T06:19:28.564Z,7.73
2018-07-10T06:21:56.389Z,4.40
2018-07-10T06:24:26.279Z,5.40
2018-07-10T06:27:02.131Z,4.17
2018-07-10T06:29:33.303Z,5.23
2018-07-10T06:32:01.522Z,6.20
2018-07-10T06:34:37.563Z,4.33
2018-07-10T06:37:09.473Z,5.50
2018-07-10T06:39:37.700Z,5.83
2018-07-10T06:42:14.650Z,5.90
2018-07-10T06:44:46.665Z,5.00
2018-07-10T06:47:16.167Z,3.37
2018-07-10T06:49:43.917Z,5.90
2018-07-10T06:52:16.261Z,3.93
2018-07-10T06:55:19.975Z,3.57
2018-07-10T06:57:50.799Z,7.83
2018-07-10T07:00:19.240Z,6.27
2018-07-10T07:02:47.196Z,8.83
2018-07-10T07:05:15.073Z,9.30
2018-07-10T07:07:43.020Z,5.93
2018-07-10T07:10:12.037Z,3.20
2018-07-10T07:12:40.710Z,6.33
2018-07-10T07:15:10.430Z,6.37
2018-07-10T07:17:43.188Z,5.90
2018-07-10T07:20:11.047Z,9.67
2018-07-10T07:22:39.060Z,5.97
2018-07-10T07:25:07.761Z,6.10
2018-07-10T07:27:35.750Z,7.43
2018-07-10T07:30:04.014Z,6.00
2018-07-10T07:32:32.117Z,5.77
2018-07-10T07:35:00.222Z,5.43
2018-07-10T07:37:28.831Z,6.10
2018-07-10T07:39:57.083Z,3.70
2018-07-10T07:42:26.001Z,4.90
2018-07-10T07:44:54.309Z,5.93
2018-07-10T07:47:25.435Z,4.93
2018-07-10T07:49:54.388Z,5.40
2018-07-10T07:52:26.368Z,4.70
2018-07-10T07:54:54.963Z,5.40
2018-07-10T07:57:23.631Z,4.60
2018-07-10T07:59:51.562Z,4.80
2018-07-10T08:02:20.114Z,3.30
2018-07-10T08:04:48.062Z,4.80
2018-07-10T08:07:16.014Z,4.27
2018-07-10T08:09:43.981Z,2.47
2018-07-10T08:12:11.846Z,5.83
2018-07-10T08:14:39.738Z,5.97
2018-07-10T08:17:07.774Z,3.47
2018-07-10T08:19:35.894Z,2.73
2018-07-10T08:22:04.871Z,5.90
2018-07-10T08:24:34.820Z,3.37
2018-07-10T08:27:04.423Z,3.10
2018-07-10T08:29:32.502Z,3.40
2018-07-10T08:32:02.062Z,3.57
2018-07-10T08:34:30.426Z,3.27
2018-07-10T08:36:58.262Z,4.17
2018-07-10T08:39:25.976Z,2.57
2018-07-10T08:41:53.838Z,4.83
2018-07-10T08:44:21.824Z,5.03
2018-07-10T08:46:52.701Z,5.40
2018-07-10T08:49:21.121Z,3.50
2018-07-10T08:51:50.658Z,3.13
2018-07-10T08:54:20.588Z,3.47
2018-07-10T08:56:48.350Z,2.30
2018-07-10T08:59:16.109Z,2.50
2018-07-10T09:01:46.091Z,2.50
2018-07-10T09:04:14.190Z,3.63
2018-07-10T09:06:42.210Z,2.00
2018-07-10T09:09:10.065Z,2.57
2018-07-10T09:11:37.862Z,1.53
2018-07-10T09:14:05.694Z,1.67
2018-07-10T09:16:33.518Z,3.37
2018-07-10T09:19:01.456Z,1.83
2018-07-10T09:21:29.315Z,2.10
2018-07-10T09:23:57.795Z,1.53
2018-07-10T09:26:25.919Z,2.03
2018-07-10T09:28:53.646Z,2.20
2018-07-10T09:31:21.521Z,8.60
2018-07-10T09:33:49.389Z,2.40
2018-07-10T09:36:17.681Z,3.77
2018-07-10T09:38:45.571Z,2.40
2018-07-10T09:41:13.290Z,2.27
2018-07-10T09:43:42.327Z,2.53
2018-07-10T09:46:10.176Z,3.17
2018-07-10T09:48:37.897Z,2.23
2018-07-10T09:51:06.211Z,2.70
2018-07-10T09:53:34.753Z,4.77
2018-07-10T09:56:02.656Z,2.67
2018-07-10T09:58:31.332Z,1.97
2018-07-10T10:01:02.942Z,3.67
2018-07-10T10:03:31.549Z,4.03
2018-07-10T10:05:59.650Z,4.93
2018-07-10T10:08:27.546Z,1.77
2018-07-10T10:10:55.261Z,2.20
2018-07-10T10:13:23.059Z,1.57
2018-07-10T10:15:50.814Z,4.80
2018-07-10T10:18:18.641Z,2.27
2018-07-10T10:20:46.474Z,3.50
2018-07-10T10:23:14.623Z,1.77
2018-07-10T10:25:51.778Z,4.40
2018-07-10T10:28:22.594Z,1.90
2018-07-10T10:30:50.421Z,4.00
2018-07-10T10:33:18.258Z,2.43
2018-07-10T10:35:46.100Z,2.50
2018-07-10T10:38:14.378Z,4.00
2018-07-10T10:40:42.230Z,2.13
2018-07-10T10:43:11.886Z,3.57
2018-07-10T10:45:42.455Z,3.60
2018-07-10T10:48:12.279Z,2.50
2018-07-10T10:50:43.049Z,2.90
2018-07-10T10:53:10.983Z,4.77
2018-07-10T10:55:38.792Z,5.10
2018-07-10T10:58:06.603Z,3.83
2018-07-10T11:00:34.463Z,4.33
2018-07-10T11:03:05.146Z,2.90
2018-07-10T11:05:33.710Z,2.40
2018-07-10T11:08:01.971Z,4.70
2018-07-10T11:10:30.282Z,6.93
2018-07-10T11:12:58.290Z,5.00
2018-07-10T11:15:26.269Z,4.63
2018-07-10T11:18:01.111Z,3.27
2018-07-10T11:20:40.238Z,5.30
2018-07-10T11:23:08.365Z,4.00
2018-07-10T11:25:38.553Z,2.77
2018-07-10T11:28:08.319Z,5.03
2018-07-10T11:30:36.465Z,3.43
2018-07-10T11:33:05.358Z,3.80
2018-07-10T11:35:33.826Z,3.50
2018-07-10T11:38:04.793Z,6.40
2018-07-10T11:40:33.226Z,4.40
2018-07-10T11:43:01.329Z,5.50
2018-07-10T11:45:29.468Z,5.73
2018-07-10T11:47:57.446Z,5.60
2018-07-10T11:50:25.228Z,3.30
2018-07-10T11:52:52.974Z,2.60
2018-07-10T11:55:20.838Z,3.47
2018-07-10T11:57:49.342Z,4.00
2018-07-10T12:00:20.583Z,3.23
2018-07-10T12:02:49.378Z,3.33
2018-07-10T12:05:18.353Z,3.00
2018-07-10T12:07:50.537Z,3.20
2018-07-10T12:10:20.030Z,4.73
2018-07-10T12:12:49.029Z,3.03
2018-07-10T12:15:17.070Z,3.57
2018-07-10T12:17:46.917Z,3.57
2018-07-10T12:20:14.731Z,3.47
2018-07-10T12:22:43.144Z,3.27
2018-07-10T12:25:11.558Z,4.20
2018-07-10T12:27:39.413Z,4.10
2018-07-10T12:30:13.163Z,5.23
2018-07-10T12:32:41.077Z,4.63
2018-07-10T12:35:09.264Z,5.60
2018-07-10T12:37:38.437Z,3.00
2018-07-10T12:40:06.297Z,4.50
2018-07-10T12:42:34.882Z,4.47
2018-07-10T12:45:02.684Z,5.50
2018-07-10T12:47:31.137Z,5.90
2018-07-10T12:49:58.966Z,4.50
2018-07-10T12:52:27.078Z,2.50
2018-07-10T12:54:56.030Z,4.00
2018-07-10T12:57:24.337Z,2.93
2018-07-10T12:59:52.164Z,2.90
2018-07-10T13:02:20.045Z,4.10
2018-07-10T13:04:47.981Z,4.47
2018-07-10T13:07:15.775Z,5.47
2018-07-10T13:09:43.571Z,4.07
2018-07-10T13:12:11.241Z,4.77
2018-07-10T13:14:38.988Z,3.80
2018-07-10T13:17:06.759Z,3.93
2018-07-10T13:19:36.255Z,3.60
2018-07-10T13:22:04.135Z,7.80
2018-07-10T13:24:31.950Z,3.80
2018-07-10T13:26:59.750Z,4.13
2018-07-10T13:29:27.484Z,4.57
2018-07-10T13:31:55.189Z,2.53
2018-07-10T13:34:22.921Z,3.83
2018-07-10T13:36:50.775Z,4.17
2018-07-10T13:39:18.637Z,2.73
2018-07-10T13:41:46.449Z,3.77
2018-07-10T13:44:14.402Z,3.23
2018-07-10T13:46:42.227Z,3.10
2018-07-10T13:49:10.197Z,3.70
2018-07-10T13:51:37.980Z,3.77
2018-07-10T13:54:05.826Z,3.40
2018-07-10T13:56:33.602Z,2.30
2018-07-10T13:59:01.685Z,3.67
2018-07-10T14:01:29.619Z,3.00
2018-07-10T14:03:57.437Z,4.73
2018-07-10T14:06:25.353Z,5.37
2018-07-10T14:08:53.281Z,4.80
2018-07-10T14:11:21.277Z,3.93
2018-07-10T14:13:49.160Z,4.27
2018-07-10T14:16:17.245Z,2.83
2018-07-10T14:18:45.204Z,3.20
2018-07-10T14:21:13.019Z,4.63
2018-07-10T14:23:40.870Z,6.20
2018-07-10T14:26:08.645Z,7.83
2018-07-10T14:28:36.385Z,4.37
2018-07-10T14:31:04.215Z,3.23
2018-07-10T14:33:32.043Z,7.07
2018-07-10T14:35:59.932Z,3.20
2018-07-10T14:38:29.294Z,4.07
2018-07-10T14:41:00.517Z,3.30
2018-07-10T14:43:30.012Z,3.90
2018-07-10T14:46:02.936Z,4.30
2018-07-10T14:48:33.985Z,4.10
2018-07-10T14:51:02.055Z,2.20
2018-07-10T14:53:29.912Z,3.80
2018-07-10T14:55:57.745Z,2.93
2018-07-10T14:58:25.550Z,2.63
2018-07-10T15:00:53.700Z,2.07
2018-07-10T15:03:21.522Z,5.93
2018-07-10T15:05:49.338Z,9.57
2018-07-10T15:08:17.127Z,3.30
2018-07-10T15:10:44.970Z,2.17
2018-07-10T15:13:12.658Z,2.67
2018-07-10T15:15:41.694Z,2.60
2018-07-10T15:18:15.378Z,2.97
2018-07-10T15:20:43.943Z,2.47
2018-07-10T15:23:11.799Z,3.47
2018-07-10T15:25:39.641Z,5.77
2018-07-10T15:28:07.468Z,4.60
2018-07-10T15:30:35.282Z,3.40
2018-07-10T15:33:03.098Z,4.30
2018-07-10T15:35:30.945Z,3.63
2018-07-10T15:37:58.832Z,5.77
2018-07-10T15:40:26.689Z,3.37
2018-07-10T15:42:54.555Z,2.97
2018-07-10T15:45:22.441Z,3.27
2018-07-10T15:47:50.243Z,4.77
2018-07-10T15:50:18.016Z,2.63
2018-07-10T15:52:45.715Z,3.57
2018-07-10T15:55:13.550Z,2.80
2018-07-10T15:57:41.350Z,2.90
2018-07-10T16:00:09.774Z,3.73
2018-07-10T16:02:37.646Z,3.70
2018-07-10T16:05:06.001Z,4.40
2018-07-10T16:07:33.733Z,5.37
2018-07-10T16:10:01.559Z,5.60
2018-07-10T16:12:29.299Z,5.27
2018-07-10T16:14:57.246Z,4.60
2018-07-10T16:17:26.349Z,5.53
2018-07-10T16:20:08.074Z,3.13
2018-07-10T16:22:35.781Z,4.73
2018-07-10T16:25:39.972Z,2.60
2018-07-10T16:28:09.638Z,5.00
2018-07-10T16:30:37.476Z,2.43
2018-07-10T16:33:05.872Z,4.03
2018-07-10T16:35:35.001Z,3.33
2018-07-10T16:38:03.493Z,4.07
2018-07-10T16:40:31.619Z,4.37
2018-07-10T16:42:59.441Z,3.87
2018-07-10T16:45:32.326Z,3.23
2018-07-10T16:50:16.070Z,4.17
2018-07-10T16:52:50.295Z,3.43
2018-07-10T16:55:18.199Z,3.93
2018-07-10T16:57:46.050Z,3.23
2018-07-10T17:00:14.301Z,4.40
2018-07-10T17:02:42.150Z,5.40
2018-07-10T17:05:10.012Z,2.70
2018-07-10T17:07:37.706Z,4.57
2018-07-10T17:10:05.703Z,3.33
2018-07-10T17:12:33.591Z,4.10
2018-07-10T17:15:01.352Z,4.00
2018-07-10T17:17:29.590Z,4.23
2018-07-10T17:19:57.403Z,4.50
2018-07-10T17:22:25.570Z,5.23
2018-07-10T17:24:53.939Z,3.80
2018-07-10T17:27:26.734Z,4.80
2018-07-10T17:29:54.554Z,4.00
2018-07-10T17:32:22.570Z,5.50
2018-07-10T17:34:50.405Z,4.13
2018-07-10T17:37:18.469Z,4.53
2018-07-10T17:39:46.418Z,4.50
2018-07-10T17:42:15.052Z,5.07
2018-07-10T17:44:42.761Z,5.40
2018-07-10T17:47:10.686Z,5.13
2018-07-10T17:49:38.516Z,4.30
2018-07-10T17:52:07.002Z,4.50
2018-07-10T17:54:35.345Z,8.73
2018-07-10T17:57:03.877Z,3.43
2018-07-10T17:59:31.712Z,5.03
2018-07-10T18:01:59.696Z,4.70
2018-07-10T18:04:27.555Z,4.10
2018-07-10T18:06:56.273Z,4.53
2018-07-10T18:09:24.004Z,3.90
2018-07-10T18:11:51.883Z,3.70
2018-07-10T18:14:19.721Z,6.00
2018-07-10T18:16:47.707Z,4.23
2018-07-10T18:19:15.702Z,4.87
2018-07-10T18:21:43.542Z,6.50
2018-07-10T18:24:11.478Z,3.33
2018-07-10T18:26:39.360Z,5.23
2018-07-10T18:29:07.196Z,3.20
2018-07-10T18:31:35.038Z,4.90
2018-07-10T18:34:02.955Z,7.17
2018-07-10T18:36:30.889Z,4.30
2018-07-10T18:38:58.772Z,6.43
2018-07-10T18:41:26.603Z,2.70
2018-07-10T18:43:54.410Z,4.60
2018-07-10T18:46:23.183Z,4.93
2018-07-10T18:48:51.078Z,3.77
2018-07-10T18:51:19.915Z,3.50
2018-07-10T18:53:48.443Z,3.00
2018-07-10T18:56:17.239Z,5.83
2018-07-10T18:58:50.455Z,4.27
2018-07-10T19:01:20.926Z,3.50
2018-07-10T19:03:49.485Z,5.30
2018-07-10T19:06:20.930Z,5.10
2018-07-10T19:08:48.766Z,5.80
2018-07-10T19:11:21.358Z,4.40
2018-07-10T19:13:49.364Z,6.47
2018-07-10T19:16:17.519Z,4.77
2018-07-10T19:18:46.189Z,5.47
2018-07-10T19:21:20.994Z,7.10
2018-07-10T19:23:50.643Z,6.50
2018-07-10T19:26:19.990Z,7.00
2018-07-10T19:28:47.904Z,8.93
2018-07-10T19:31:17.895Z,5.20
2018-07-10T19:33:48.234Z,6.20
2018-07-10T19:36:16.507Z,4.50
2018-07-10T19:38:44.814Z,5.63
2018-07-10T19:41:12.957Z,5.57
2018-07-10T19:43:40.795Z,6.70
2018-07-10T19:46:09.571Z,4.07
2018-07-10T19:48:37.413Z,5.63
2018-07-10T19:51:08.279Z,4.93
2018-07-10T19:53:36.498Z,7.40
2018-07-10T19:56:04.338Z,12.87
2018-07-10T19:58:38.886Z,6.97
2018-07-10T20:01:09.466Z,4.63
2018-07-10T20:03:55.611Z,9.43
2018-07-10T20:06:26.884Z,5.63
2018-07-10T20:08:59.957Z,5.17
2018-07-10T20:11:33.394Z,4.40
2018-07-10T20:14:01.246Z,5.73
2018-07-10T20:16:51.700Z,5.00
2018-07-10T20:19:23.005Z,3.60
2018-07-10T20:24:02.915Z,5.87
2018-07-10T20:26:52.486Z,3.50
2018-07-10T20:30:32.536Z,3.73
2018-07-10T20:33:39.220Z,4.40
2018-07-10T20:36:07.294Z,5.13
2018-07-10T20:38:35.047Z,4.47
2018-07-10T20:41:03.582Z,6.57
2018-07-10T20:43:33.529Z,4.73
2018-07-10T20:46:01.477Z,7.10
2018-07-10T20:48:39.194Z,7.67
2018-07-10T20:51:08.601Z,5.07
2018-07-10T20:53:44.222Z,5.23
2018-07-10T20:56:17.734Z,7.07
2018-07-10T20:58:48.690Z,6.43
2018-07-10T21:01:16.881Z,4.10
2018-07-10T21:03:48.591Z,9.00
2018-07-10T21:07:01.001Z,4.03
2018-07-10T21:09:38.726Z,4.20
2018-07-10T21:12:10.257Z,6.20
2018-07-10T21:15:12.636Z,4.83
2018-07-10T21:18:04.334Z,5.23
2018-07-10T21:20:40.413Z,5.00
2018-07-10T21:23:19.844Z,5.70
2018-07-10T21:25:58.000Z,3.83
2018-07-10T21:28:34.659Z,3.50
2018-07-10T21:32:13.195Z,3.93
2018-07-10T21:34:45.871Z,5.00
2018-07-10T21:39:31.677Z,4.00
2018-07-10T21:42:05.148Z,3.50
2018-07-10T21:45:58.360Z,4.10
2018-07-10T21:48:42.770Z,3.40
2018-07-10T21:51:10.562Z,3.57
2018-07-10T21:53:38.441Z,4.10
2018-07-10T21:56:06.150Z,3.83
2018-07-10T21:58:34.430Z,4.33
2018-07-10T22:01:41.708Z,3.97
2018-07-10T22:04:11.492Z,3.47
2018-07-10T22:06:40.117Z,4.13
2018-07-10T22:09:08.615Z,3.97
2018-07-10T22:11:37.315Z,3.80
2018-07-10T22:14:05.399Z,4.57
2018-07-10T22:16:33.226Z,4.30
2018-07-10T22:19:01.678Z,3.50
2018-07-10T22:21:29.482Z,4.33
2018-07-10T22:23:57.574Z,3.10
2018-07-10T22:26:25.713Z,4.30
2018-07-10T22:28:53.885Z,3.43
2018-07-10T22:31:27.422Z,3.60
2018-07-10T22:33:55.121Z,3.90
2018-07-10T22:36:23.242Z,4.37
2018-07-10T22:38:51.537Z,4.37
2018-07-10T22:41:20.943Z,4.17
2018-07-10T22:43:50.595Z,4.07
2018-07-10T22:46:20.438Z,4.77
2018-07-10T22:48:49.573Z,5.63
2018-07-10T22:51:17.712Z,6.13
2018-07-10T22:53:46.255Z,5.00
2018-07-10T22:56:14.102Z,5.70
2018-07-10T22:58:42.294Z,6.37
2018-07-10T23:01:10.726Z,6.00
2018-07-10T23:03:38.398Z,8.63
2018-07-10T23:06:06.175Z,7.50
2018-07-10T23:08:34.990Z,7.17
2018-07-10T23:11:04.228Z,7.40
2018-07-10T23:13:34.030Z,6.87
2018-07-10T23:16:01.718Z,7.17
2018-07-10T23:18:29.512Z,7.87
2018-07-10T23:20:57.330Z,7.90
2018-07-10T23:23:24.942Z,7.97
2018-07-10T23:25:52.762Z,8.00
2018-07-10T23:28:20.895Z,9.10
2018-07-10T23:30:48.626Z,8.93
2018-07-10T23:33:17.368Z,10.07
2018-07-10T23:35:46.562Z,8.80
2018-07-10T23:38:19.787Z,8.60
2018-07-10T23:40:47.708Z,9.17
2018-07-10T23:43:15.405Z,9.33
2018-07-10T23:45:43.663Z,9.33
2018-07-10T23:48:11.283Z,9.17
2018-07-10T23:50:39.180Z,9.67
2018-07-10T23:54:00.373Z,9.17
2018-07-10T23:56:28.118Z,9.37
2018-07-10T23:58:55.920Z,8.53
